createdAt,value
2022-09-29T00:00:27.342Z,95981.25
2022-09-29T00:02:56.630Z,95976.00
2022-09-29T00:05:26.347Z,95969.75
2022-09-29T00:07:55.836Z,95967.41
2022-09-29T00:10:25.209Z,95970.34
2022-09-29T00:12:54.575Z,95970.06
2022-09-29T00:15:25.837Z,95977.19
2022-09-29T00:18:13.235Z,95978.00
2022-09-29T00:20:42.842Z,95972.50
2022-09-29T00:23:12.167Z,95978.34
2022-09-29T00:25:41.710Z,95972.31
2022-09-29T00:28:10.739Z,95971.19
2022-09-29T00:30:41.325Z,95975.13
2022-09-29T00:33:10.524Z,95981.72
2022-09-29T00:35:41.576Z,95974.38
2022-09-29T00:38:10.986Z,95981.72
2022-09-29T00:40:40.598Z,95977.69
2022-09-29T00:43:14.521Z,95981.91
2022-09-29T00:45:45.358Z,95980.69
2022-09-29T00:48:18.050Z,95983.97
2022-09-29T00:50:50.366Z,95982.75
2022-09-29T00:53:21.944Z,95981.09
2022-09-29T00:55:53.801Z,95968.75
2022-09-29T00:58:30.441Z,95968.28
2022-09-29T01:01:01.746Z,95964.16
2022-09-29T01:03:34.287Z,95974.06
2022-09-29T01:06:07.117Z,95967.50
2022-09-29T01:08:40.232Z,95962.91
2022-09-29T01:11:10.567Z,95970.06
2022-09-29T01:13:41.650Z,95971.56
2022-09-29T01:16:12.786Z,95969.78
2022-09-29T01:18:42.608Z,95965.81
2022-09-29T01:21:18.472Z,95969.31
2022-09-29T01:24:29.628Z,95965.44
2022-09-29T01:27:30.226Z,95952.50
2022-09-29T01:30:23.908Z,95957.84
2022-09-29T01:33:11.121Z,95956.44
2022-09-29T01:35:46.571Z,95959.63
2022-09-29T01:38:28.941Z,95955.50
2022-09-29T01:41:03.746Z,95968.47
2022-09-29T01:43:36.646Z,95970.72
2022-09-29T01:46:08.529Z,95978.41
2022-09-29T01:48:43.774Z,95977.31
2022-09-29T01:51:16.048Z,95970.63
2022-09-29T01:53:49.206Z,95985.22
2022-09-29T01:56:24.348Z,95972.69
2022-09-29T01:58:56.964Z,95981.13
2022-09-29T02:01:30.790Z,95977.56
2022-09-29T02:04:05.621Z,95984.78
2022-09-29T02:06:38.469Z,95980.63
2022-09-29T02:09:13.387Z,95980.81
2022-09-29T02:11:43.822Z,95980.09
2022-09-29T02:14:16.128Z,95986.53
2022-09-29T02:16:49.833Z,95984.72
2022-09-29T02:19:22.868Z,95993.97
2022-09-29T02:21:54.538Z,96005.91
2022-09-29T02:24:24.431Z,96001.03
2022-09-29T02:26:54.812Z,96008.53
2022-09-29T02:29:24.317Z,96002.72
2022-09-29T02:31:55.308Z,96012.75
2022-09-29T02:34:26.388Z,96014.72
2022-09-29T02:37:00.893Z,96007.56
2022-09-29T02:39:42.133Z,96009.03
2022-09-29T02:42:21.845Z,96018.81
2022-09-29T02:45:15.372Z,96016.94
2022-09-29T02:48:00.278Z,96015.03
2022-09-29T02:50:43.249Z,96015.38
2022-09-29T02:53:21.377Z,96015.38
2022-09-29T02:55:57.333Z,96014.75
2022-09-29T02:58:32.292Z,96027.22
2022-09-29T03:01:02.160Z,96026.78
2022-09-29T03:03:31.841Z,96021.41
2022-09-29T03:06:03.895Z,96025.34
2022-09-29T03:08:33.397Z,96019.22
2022-09-29T03:11:02.743Z,96025.16
2022-09-29T03:13:32.026Z,96034.16
2022-09-29T03:16:01.571Z,96033.38
2022-09-29T03:18:31.303Z,96035.38
2022-09-29T03:21:00.535Z,96043.13
2022-09-29T03:23:31.696Z,96043.25
2022-09-29T03:26:00.872Z,96046.53
2022-09-29T03:28:30.053Z,96057.16
2022-09-29T03:31:06.970Z,96061.16
2022-09-29T03:33:37.178Z,96063.34
2022-09-29T03:36:08.969Z,96067.13
2022-09-29T03:38:40.517Z,96063.56
2022-09-29T03:41:11.170Z,96069.06
2022-09-29T03:43:43.630Z,96062.75
2022-09-29T03:46:12.741Z,96076.25
2022-09-29T03:48:43.051Z,96073.34
2022-09-29T03:51:12.338Z,96078.63
2022-09-29T03:53:42.994Z,96082.44
2022-09-29T03:56:12.273Z,96087.44
2022-09-29T03:58:42.126Z,96084.09
2022-09-29T04:01:11.505Z,96091.09
2022-09-29T04:03:40.853Z,96094.16
2022-09-29T04:06:10.195Z,96103.56
2022-09-29T04:08:39.681Z,96092.25
2022-09-29T04:11:10.746Z,96099.19
2022-09-29T04:13:40.170Z,96083.25
2022-09-29T04:16:09.636Z,96087.19
2022-09-29T04:18:39.184Z,96090.03
2022-09-29T04:21:09.395Z,96086.81
2022-09-29T04:23:38.722Z,96081.06
2022-09-29T04:26:09.576Z,96083.50
2022-09-29T04:28:39.392Z,96090.84
2022-09-29T04:31:09.237Z,96083.91
2022-09-29T04:33:39.301Z,96086.50
2022-09-29T04:36:08.832Z,96085.84
2022-09-29T04:38:38.199Z,96085.19
2022-09-29T04:41:09.320Z,96081.78
2022-09-29T04:43:38.593Z,96075.50
2022-09-29T04:46:09.499Z,96067.13
2022-09-29T04:48:39.086Z,96069.44
2022-09-29T04:51:10.612Z,96070.22
2022-09-29T04:53:40.279Z,96085.88
2022-09-29T04:56:11.420Z,96104.13
2022-09-29T04:58:40.734Z,96111.94
2022-09-29T05:01:13.081Z,96115.38
2022-09-29T05:03:43.046Z,96110.56
2022-09-29T05:06:12.621Z,96125.72
2022-09-29T05:08:41.964Z,96125.00
2022-09-29T05:11:13.010Z,96124.41
2022-09-29T05:13:42.288Z,96129.75
2022-09-29T05:16:11.789Z,96137.03
2022-09-29T05:18:40.970Z,96139.91
2022-09-29T05:21:28.694Z,96149.28
2022-09-29T05:23:58.553Z,96151.31
2022-09-29T05:26:29.285Z,96148.75
2022-09-29T05:28:58.558Z,96160.19
2022-09-29T05:31:27.956Z,96160.47
2022-09-29T05:33:57.621Z,96167.94
2022-09-29T05:36:26.937Z,96170.91
2022-09-29T05:38:56.439Z,96169.72
2022-09-29T05:41:26.073Z,96175.56
2022-09-29T05:43:58.330Z,96175.22
2022-09-29T05:46:27.655Z,96178.97
2022-09-29T05:48:57.265Z,96180.31
2022-09-29T05:51:28.015Z,96184.63
2022-09-29T05:53:57.429Z,96188.06
2022-09-29T05:56:28.086Z,96202.59
2022-09-29T05:59:01.816Z,96206.38
2022-09-29T06:01:33.401Z,96203.53
2022-09-29T06:04:03.741Z,96210.13
2022-09-29T06:06:32.975Z,96211.25
2022-09-29T06:09:02.526Z,96216.66
2022-09-29T06:11:33.161Z,96211.66
2022-09-29T06:14:04.280Z,96221.31
2022-09-29T06:16:34.940Z,96215.97
2022-09-29T06:19:05.509Z,96229.31
2022-09-29T06:21:37.949Z,96230.06
2022-09-29T06:24:08.721Z,96240.75
2022-09-29T06:26:40.646Z,96233.06
2022-09-29T06:29:11.678Z,96231.88
2022-09-29T06:31:41.006Z,96236.97
2022-09-29T06:34:11.510Z,96229.72
2022-09-29T06:37:00.321Z,96229.75
2022-09-29T06:39:30.576Z,96227.94
2022-09-29T06:42:00.187Z,96226.75
2022-09-29T06:44:31.387Z,96220.44
2022-09-29T06:47:01.197Z,96200.94
2022-09-29T06:49:30.447Z,96200.16
2022-09-29T06:52:00.740Z,96203.34
2022-09-29T06:54:31.966Z,96208.00
2022-09-29T06:57:01.423Z,96215.97
2022-09-29T06:59:32.362Z,96225.16
2022-09-29T07:02:01.853Z,96220.72
2022-09-29T07:04:31.097Z,96226.16
2022-09-29T07:07:00.417Z,96228.06
2022-09-29T07:09:29.709Z,96233.84
2022-09-29T07:12:00.864Z,96234.59
2022-09-29T07:14:33.506Z,96236.53
2022-09-29T07:17:02.768Z,96238.19
2022-09-29T07:19:32.698Z,96236.19
2022-09-29T07:22:02.365Z,96240.22
2022-09-29T07:24:31.727Z,96248.34
2022-09-29T07:27:03.142Z,96255.47
2022-09-29T07:29:35.301Z,96254.72
2022-09-29T07:32:04.747Z,96248.50
2022-09-29T07:34:33.989Z,96240.88
2022-09-29T07:37:03.292Z,96233.38
2022-09-29T07:39:32.474Z,96241.06
2022-09-29T07:42:07.225Z,96243.13
2022-09-29T07:44:40.413Z,96239.53
2022-09-29T07:47:09.802Z,96259.47
2022-09-29T07:49:39.594Z,96263.25
2022-09-29T07:52:08.935Z,96262.38
2022-09-29T07:54:38.178Z,96279.06
2022-09-29T07:57:07.406Z,96282.31
2022-09-29T07:59:36.477Z,96293.06
2022-09-29T08:02:08.086Z,96298.22
2022-09-29T08:04:37.382Z,96289.28
2022-09-29T08:07:08.180Z,96290.50
2022-09-29T08:09:41.205Z,96294.31
2022-09-29T08:12:11.258Z,96298.66
2022-09-29T08:14:44.094Z,96306.31
2022-09-29T08:17:15.177Z,96304.41
2022-09-29T08:19:44.470Z,96304.25
2022-09-29T08:22:13.978Z,96303.81
2022-09-29T08:24:43.177Z,96297.44
2022-09-29T08:27:18.898Z,96289.75
2022-09-29T08:29:48.666Z,96301.78
2022-09-29T08:32:19.430Z,96310.47
2022-09-29T08:34:48.797Z,96305.19
2022-09-29T08:37:18.285Z,96303.00
2022-09-29T08:39:47.633Z,96306.53
2022-09-29T08:42:21.477Z,96305.78
2022-09-29T08:45:04.005Z,96318.31
2022-09-29T08:47:47.281Z,96317.69
2022-09-29T08:50:18.913Z,96323.44
2022-09-29T08:52:53.058Z,96326.19
2022-09-29T08:55:26.993Z,96324.66
2022-09-29T08:57:59.775Z,96329.06
2022-09-29T09:00:40.585Z,96334.50
2022-09-29T09:03:34.464Z,96333.47
2022-09-29T09:06:12.982Z,96341.75
2022-09-29T09:09:10.966Z,96337.81
2022-09-29T09:11:53.261Z,96329.13
2022-09-29T09:14:32.669Z,96339.78
2022-09-29T09:17:12.147Z,96338.72
2022-09-29T09:19:55.909Z,96332.78
2022-09-29T09:22:26.608Z,96331.31
2022-09-29T09:25:00.015Z,96336.59
2022-09-29T09:27:35.096Z,96343.59
2022-09-29T09:30:08.450Z,96348.13
2022-09-29T09:32:41.278Z,96344.94
2022-09-29T09:35:26.678Z,96346.00
2022-09-29T09:37:56.719Z,96340.09
2022-09-29T09:40:29.699Z,96336.78
2022-09-29T09:43:04.304Z,96340.09
2022-09-29T09:45:35.758Z,96332.97
2022-09-29T09:48:09.210Z,96334.94
2022-09-29T09:50:43.066Z,96337.69
2022-09-29T09:53:16.367Z,96340.09
2022-09-29T09:55:45.701Z,96341.72
2022-09-29T09:58:39.497Z,96351.00
2022-09-29T10:01:10.144Z,96347.97
2022-09-29T10:03:39.905Z,96344.22
2022-09-29T10:06:10.840Z,96348.69
2022-09-29T10:08:42.433Z,96346.94
2022-09-29T10:11:24.048Z,96348.25
2022-09-29T10:14:00.658Z,96346.53
2022-09-29T10:16:34.629Z,96344.13
2022-09-29T10:19:04.002Z,96342.63
2022-09-29T10:21:42.284Z,96350.22
2022-09-29T10:24:25.856Z,96341.16
2022-09-29T10:26:56.829Z,96342.06
2022-09-29T10:29:33.104Z,96342.56
2022-09-29T10:32:06.233Z,96333.44
2022-09-29T10:34:37.735Z,96327.81
2022-09-29T10:37:22.749Z,96334.91
2022-09-29T10:39:53.359Z,96330.13
2022-09-29T10:42:27.418Z,96344.69
2022-09-29T10:45:03.445Z,96355.84
2022-09-29T10:47:34.321Z,96352.59
2022-09-29T10:50:15.077Z,96360.03
2022-09-29T10:52:52.507Z,96367.16
2022-09-29T10:55:23.623Z,96381.38
2022-09-29T10:57:54.039Z,96379.56
2022-09-29T11:00:28.978Z,96383.34
2022-09-29T11:03:05.523Z,96369.88
2022-09-29T11:05:35.030Z,96370.22
2022-09-29T11:08:06.248Z,96376.69
2022-09-29T11:10:37.324Z,96383.34
2022-09-29T11:13:38.955Z,96383.16
2022-09-29T11:16:16.152Z,96388.97
2022-09-29T11:18:47.451Z,96379.19
2022-09-29T11:22:04.417Z,96367.63
2022-09-29T11:25:27.344Z,96356.25
2022-09-29T11:28:31.972Z,96351.44
2022-09-29T11:31:16.425Z,96345.56
2022-09-29T11:33:52.546Z,96344.50
2022-09-29T11:36:26.947Z,96356.47
2022-09-29T11:39:04.421Z,96360.78
2022-09-29T11:41:49.719Z,96344.69
2022-09-29T11:44:40.509Z,96352.03
2022-09-29T11:47:20.261Z,96354.16
2022-09-29T11:50:04.206Z,96362.03
2022-09-29T11:53:01.585Z,96354.47
2022-09-29T11:55:48.413Z,96355.09
2022-09-29T11:58:30.218Z,96356.69
2022-09-29T12:01:15.857Z,96360.69
2022-09-29T12:03:49.748Z,96348.31
2022-09-29T12:06:42.749Z,96330.50
2022-09-29T12:09:30.605Z,96341.69
2022-09-29T12:15:05.874Z,96345.09
2022-09-29T12:17:38.168Z,96354.09
2022-09-29T12:20:16.479Z,96348.00
2022-09-29T12:22:46.208Z,96343.19
2022-09-29T12:25:17.620Z,96350.59
2022-09-29T12:27:48.943Z,96352.88
2022-09-29T12:30:23.123Z,96348.41
2022-09-29T12:32:58.900Z,96349.50
2022-09-29T12:35:33.628Z,96346.78
2022-09-29T12:38:10.301Z,96362.59
2022-09-29T12:40:40.830Z,96353.09
2022-09-29T12:43:15.922Z,96362.47
2022-09-29T12:45:50.829Z,96361.94
2022-09-29T12:48:30.830Z,96367.19
2022-09-29T12:51:04.282Z,96367.91
2022-09-29T12:53:38.015Z,96384.97
2022-09-29T12:56:11.707Z,96382.44
2022-09-29T12:58:44.623Z,96380.31
2022-09-29T13:01:23.038Z,96374.63
2022-09-29T13:04:23.798Z,96367.03
2022-09-29T13:07:47.139Z,96379.41
2022-09-29T13:10:43.806Z,96376.38
2022-09-29T13:13:38.293Z,96367.75
2022-09-29T13:16:19.937Z,96369.69
2022-09-29T13:19:22.938Z,96373.50
2022-09-29T13:22:10.096Z,96366.13
2022-09-29T13:24:52.017Z,96360.19
2022-09-29T13:27:30.576Z,96358.63
2022-09-29T13:30:05.204Z,96344.16
2022-09-29T13:32:40.493Z,96356.41
2022-09-29T13:35:18.469Z,96346.84
2022-09-29T13:37:51.717Z,96355.06
2022-09-29T13:40:24.699Z,96355.81
2022-09-29T13:42:56.096Z,96348.31
2022-09-29T13:45:41.401Z,96345.50
2022-09-29T13:48:37.455Z,96343.94
2022-09-29T13:51:51.398Z,96352.28
2022-09-29T13:54:34.108Z,96345.69
2022-09-29T13:57:09.933Z,96356.13
2022-09-29T13:59:40.090Z,96357.91
2022-09-29T14:02:22.013Z,96338.56
2022-09-29T14:04:55.940Z,96340.19
2022-09-29T14:07:41.858Z,96344.00
2022-09-29T14:10:26.269Z,96353.34
2022-09-29T14:12:59.247Z,96350.06
2022-09-29T14:15:29.126Z,96348.09
2022-09-29T14:18:03.247Z,96359.78
2022-09-29T14:20:34.626Z,96372.09
2022-09-29T14:23:05.190Z,96374.25
2022-09-29T14:25:57.335Z,96368.94
2022-09-29T14:28:39.391Z,96375.66
2022-09-29T14:31:22.414Z,96384.56
2022-09-29T14:33:53.810Z,96390.63
2022-09-29T14:36:26.596Z,96392.88
2022-09-29T14:39:24.757Z,96397.84
2022-09-29T14:41:50.751Z,96392.81
2022-09-29T14:44:23.941Z,96399.66
2022-09-29T14:47:24.848Z,96406.31
2022-09-29T14:50:36.343Z,96396.06
2022-09-29T14:53:20.358Z,96389.91
2022-09-29T14:56:09.714Z,96379.44
2022-09-29T14:59:02.850Z,96373.06
2022-09-29T15:01:35.138Z,96367.44
2022-09-29T15:04:09.264Z,96372.44
2022-09-29T15:06:47.672Z,96377.84
2022-09-29T15:09:20.049Z,96377.91
2022-09-29T15:11:52.872Z,96383.97
2022-09-29T15:14:27.918Z,96384.72
2022-09-29T15:17:07.597Z,96372.81
2022-09-29T15:19:55.535Z,96374.97
2022-09-29T15:23:04.745Z,96375.91
2022-09-29T15:25:35.682Z,96368.88
2022-09-29T15:28:08.197Z,96360.69
2022-09-29T15:30:38.670Z,96335.56
2022-09-29T15:33:27.115Z,96333.88
2022-09-29T15:35:59.360Z,96331.34
2022-09-29T15:38:38.372Z,96338.34
2022-09-29T15:41:20.172Z,96357.38
2022-09-29T15:43:56.353Z,96360.16
2022-09-29T15:46:35.589Z,96356.38
2022-09-29T15:49:14.721Z,96372.81
2022-09-29T15:51:45.496Z,96377.88
2022-09-29T15:54:16.244Z,96369.44
2022-09-29T15:57:03.161Z,96379.38
2022-09-29T15:59:50.399Z,96381.72
2022-09-29T16:02:38.368Z,96383.41
2022-09-29T16:05:12.153Z,96373.97
2022-09-29T16:07:50.990Z,96376.69
2022-09-29T16:10:23.080Z,96379.03
2022-09-29T16:12:58.671Z,96379.91
2022-09-29T16:15:30.127Z,96382.03
2022-09-29T16:18:02.722Z,96390.88
2022-09-29T16:20:33.538Z,96397.19
2022-09-29T16:23:08.372Z,96406.09
2022-09-29T16:25:37.973Z,96407.63
2022-09-29T16:28:09.730Z,96402.69
2022-09-29T16:30:40.106Z,96393.63
2022-09-29T16:33:17.069Z,96386.47
2022-09-29T16:35:56.115Z,96381.53
2022-09-29T16:38:35.894Z,96395.78
2022-09-29T16:41:34.471Z,96392.00
2022-09-29T16:44:09.366Z,96389.19
2022-09-29T16:46:48.198Z,96383.59
2022-09-29T16:49:21.991Z,96393.09
2022-09-29T16:51:52.260Z,96388.28
2022-09-29T16:54:24.513Z,96386.06
2022-09-29T16:57:21.647Z,96392.72
2022-09-29T16:59:52.769Z,96400.28
2022-09-29T17:02:23.619Z,96391.66
2022-09-29T17:04:57.703Z,96379.56
2022-09-29T17:07:28.146Z,96382.16
2022-09-29T17:09:59.902Z,96383.22
2022-09-29T17:12:30.812Z,96397.22
2022-09-29T17:15:01.694Z,96398.84
2022-09-29T17:17:31.026Z,96395.56
2022-09-29T17:20:04.838Z,96390.47
2022-09-29T17:22:36.908Z,96389.84
2022-09-29T17:25:07.401Z,96380.75
2022-09-29T17:27:53.983Z,96381.06
2022-09-29T17:30:24.768Z,96389.19
2022-09-29T17:32:56.132Z,96374.41
2022-09-29T17:35:29.335Z,96381.06
2022-09-29T17:37:58.660Z,96384.88
2022-09-29T17:40:30.893Z,96391.97
2022-09-29T17:43:01.032Z,96410.44
2022-09-29T17:45:33.833Z,96411.53
2022-09-29T17:48:04.988Z,96402.66
2022-09-29T17:50:37.013Z,96412.53
2022-09-29T17:53:06.757Z,96424.59
2022-09-29T17:55:36.761Z,96436.88
2022-09-29T17:58:06.598Z,96440.19
2022-09-29T18:00:38.728Z,96455.34
2022-09-29T18:03:09.748Z,96448.69
2022-09-29T18:05:41.998Z,96450.97
2022-09-29T18:08:15.195Z,96454.84
2022-09-29T18:10:46.188Z,96445.50
2022-09-29T18:13:16.279Z,96447.66
2022-09-29T18:15:46.062Z,96448.25
2022-09-29T18:18:18.215Z,96450.53
2022-09-29T18:20:50.769Z,96454.75
2022-09-29T18:23:23.326Z,96451.50
2022-09-29T18:25:53.758Z,96471.84
2022-09-29T18:28:23.367Z,96475.78
2022-09-29T18:30:56.790Z,96483.44
2022-09-29T18:33:27.886Z,96473.09
2022-09-29T18:36:00.329Z,96487.25
2022-09-29T18:38:30.306Z,96493.72
2022-09-29T18:41:00.048Z,96492.88
2022-09-29T18:43:31.431Z,96481.25
2022-09-29T18:46:02.309Z,96464.00
2022-09-29T18:48:33.482Z,96459.25
2022-09-29T18:51:05.341Z,96471.56
2022-09-29T18:53:36.149Z,96481.81
2022-09-29T18:56:09.048Z,96500.59
2022-09-29T18:58:41.890Z,96497.38
2022-09-29T19:01:16.489Z,96503.25
2022-09-29T19:03:45.854Z,96497.22
2022-09-29T19:06:22.247Z,96490.75
2022-09-29T19:08:53.888Z,96484.53
2022-09-29T19:11:24.490Z,96493.22
2022-09-29T19:13:56.257Z,96490.94
2022-09-29T19:16:28.143Z,96493.03
2022-09-29T19:18:58.010Z,96499.88
2022-09-29T19:21:38.722Z,96496.22
2022-09-29T19:24:10.244Z,96493.47
2022-09-29T19:26:41.318Z,96491.19
2022-09-29T19:29:10.956Z,96508.91
2022-09-29T19:31:42.028Z,96501.31
2022-09-29T19:34:14.719Z,96507.72
2022-09-29T19:36:45.645Z,96499.91
2022-09-29T19:39:15.883Z,96495.81
2022-09-29T19:41:45.631Z,96500.69
2022-09-29T19:44:14.906Z,96499.97
2022-09-29T19:46:44.895Z,96494.81
2022-09-29T19:49:14.346Z,96508.63
2022-09-29T19:51:50.482Z,96508.47
2022-09-29T19:54:22.131Z,96494.09
2022-09-29T19:56:54.561Z,96488.44
2022-09-29T19:59:26.569Z,96498.91
2022-09-29T20:01:56.394Z,96505.16
2022-09-29T20:04:29.865Z,96499.34
2022-09-29T20:07:01.395Z,96498.41
2022-09-29T20:09:33.983Z,96499.59
2022-09-29T20:12:52.293Z,96504.00
2022-09-29T20:15:10.510Z,96506.03
2022-09-29T20:17:45.185Z,96497.88
2022-09-29T20:20:20.621Z,96498.91
2022-09-29T20:22:53.988Z,96501.47
2022-09-29T20:25:29.224Z,96511.44
2022-09-29T20:28:08.764Z,96503.94
2022-09-29T20:30:45.433Z,96500.88
2022-09-29T20:33:28.621Z,96500.56
2022-09-29T20:36:10.242Z,96498.19
2022-09-29T20:38:44.618Z,96486.31
2022-09-29T20:41:20.617Z,96494.34
2022-09-29T20:44:10.518Z,96490.69
2022-09-29T20:46:41.913Z,96488.16
2022-09-29T20:49:28.293Z,96497.38
2022-09-29T20:52:02.809Z,96495.13
2022-09-29T20:54:33.523Z,96503.63
2022-09-29T20:57:03.673Z,96501.38
2022-09-29T20:59:33.643Z,96497.88
2022-09-29T21:02:03.107Z,96497.13
2022-09-29T21:04:32.686Z,96492.28
2022-09-29T21:07:01.862Z,96490.44
2022-09-29T21:09:32.818Z,96490.94
2022-09-29T21:12:03.462Z,96491.53
2022-09-29T21:14:32.731Z,96501.03
2022-09-29T21:17:03.185Z,96498.75
2022-09-29T21:19:32.481Z,96496.66
2022-09-29T21:22:01.945Z,96494.38
2022-09-29T21:24:32.745Z,96501.50
2022-09-29T21:27:02.018Z,96512.72
2022-09-29T21:29:31.358Z,96507.03
2022-09-29T21:32:00.973Z,96513.00
2022-09-29T21:34:31.140Z,96515.75
2022-09-29T21:37:00.499Z,96506.50
2022-09-29T21:39:30.100Z,96507.69
2022-09-29T21:42:03.802Z,96509.66
2022-09-29T21:44:34.004Z,96515.72
2022-09-29T21:47:03.338Z,96525.41
2022-09-29T21:49:32.563Z,96522.13
2022-09-29T21:52:02.351Z,96518.16
2022-09-29T21:54:31.752Z,96514.69
2022-09-29T21:57:02.609Z,96502.72
2022-09-29T21:59:31.895Z,96504.25
2022-09-29T22:02:01.466Z,96512.56
2022-09-29T22:04:31.061Z,96504.78
2022-09-29T22:07:02.584Z,96501.53
2022-09-29T22:09:32.443Z,96503.19
2022-09-29T22:12:03.359Z,96497.41
2022-09-29T22:14:33.089Z,96505.25
2022-09-29T22:17:02.557Z,96489.63
2022-09-29T22:19:31.694Z,96489.31
2022-09-29T22:22:00.994Z,96506.03
2022-09-29T22:24:30.390Z,96507.19
2022-09-29T22:26:59.839Z,96500.72
2022-09-29T22:29:30.617Z,96497.06
2022-09-29T22:31:59.888Z,96494.34
2022-09-29T22:34:29.492Z,96491.44
2022-09-29T22:36:58.763Z,96504.22
2022-09-29T22:39:28.078Z,96500.91
2022-09-29T22:41:59.374Z,96507.72
2022-09-29T22:44:30.269Z,96506.34
2022-09-29T22:46:59.564Z,96503.88
2022-09-29T22:49:28.802Z,96510.28
2022-09-29T22:51:58.010Z,96515.41
2022-09-29T22:54:27.186Z,96504.84
2022-09-29T22:56:56.797Z,96495.16
2022-09-29T22:59:26.247Z,96499.97
2022-09-29T23:01:56.902Z,96498.13
2022-09-29T23:04:26.770Z,96500.56
2022-09-29T23:06:56.033Z,96505.00
2022-09-29T23:09:25.443Z,96509.41
2022-09-29T23:11:55.471Z,96510.56
2022-09-29T23:14:24.718Z,96512.88
2022-09-29T23:16:55.388Z,96509.69
2022-09-29T23:19:24.709Z,96517.56
2022-09-29T23:21:53.883Z,96515.44
2022-09-29T23:24:24.432Z,96516.63
2022-09-29T23:26:53.879Z,96514.84
2022-09-29T23:29:23.277Z,96514.50
2022-09-29T23:31:52.615Z,96516.63
2022-09-29T23:34:23.866Z,96515.91
2022-09-29T23:36:53.517Z,96509.38
2022-09-29T23:39:22.506Z,96525.13
2022-09-29T23:41:53.050Z,96516.78
2022-09-29T23:44:24.159Z,96531.94
2022-09-29T23:46:54.534Z,96530.25
2022-09-29T23:49:27.076Z,96537.22
2022-09-29T23:51:59.024Z,96537.84
2022-09-29T23:54:30.289Z,96539.22
2022-09-29T23:56:59.872Z,96536.03
2022-09-29T23:59:29.626Z,96540.56
